createdAt,value
2022-12-19T00:01:07.634Z,-6.46
2022-12-19T00:06:14.649Z,-6.52
2022-12-19T00:11:22.193Z,-6.54
2022-12-19T00:16:30.213Z,-6.54
2022-12-19T00:21:36.642Z,-6.62
2022-12-19T00:26:42.526Z,-6.67
2022-12-19T00:31:48.273Z,-6.64
2022-12-19T00:36:54.411Z,-6.59
2022-12-19T00:42:00.486Z,-6.59
2022-12-19T00:47:06.420Z,-6.62
2022-12-19T00:52:12.446Z,-6.64
2022-12-19T00:57:18.191Z,-6.69
2022-12-19T01:02:24.201Z,-6.78
2022-12-19T01:07:30.582Z,-6.86
2022-12-19T01:12:47.629Z,-6.88
2022-12-19T01:17:53.873Z,-6.82
2022-12-19T01:23:00.387Z,-6.75
2022-12-19T01:28:08.238Z,-6.80
2022-12-19T01:33:17.798Z,-6.85
2022-12-19T01:38:23.769Z,-6.91
2022-12-19T01:43:32.062Z,-6.92
2022-12-19T01:48:43.067Z,-6.90
2022-12-19T01:53:54.044Z,-6.90
2022-12-19T01:59:06.554Z,-6.94
2022-12-19T02:04:16.599Z,-6.99
2022-12-19T02:09:26.095Z,-6.97
2022-12-19T02:14:32.551Z,-7.00
2022-12-19T02:20:20.889Z,-7.09
2022-12-19T02:25:49.260Z,-7.13
2022-12-19T02:31:13.808Z,-7.13
2022-12-19T02:36:32.965Z,-7.17
2022-12-19T02:41:50.400Z,-7.24
2022-12-19T02:47:01.204Z,-7.29
2022-12-19T02:52:28.038Z,-7.26
2022-12-19T02:57:42.002Z,-7.24
2022-12-19T03:03:01.115Z,-7.27
2022-12-19T03:08:12.753Z,-7.31
2022-12-19T03:13:21.888Z,-7.33
2022-12-19T03:18:28.259Z,-7.35
2022-12-19T03:23:34.686Z,-7.47
2022-12-19T03:28:46.946Z,-7.65
2022-12-19T03:33:58.716Z,-7.84
2022-12-19T03:39:08.928Z,-7.97
2022-12-19T03:44:17.336Z,-8.06
2022-12-19T03:49:23.350Z,-8.10
2022-12-19T03:54:35.033Z,-8.11
2022-12-19T03:59:45.451Z,-8.15
2022-12-19T04:04:52.638Z,-8.18
2022-12-19T04:10:02.683Z,-8.20
2022-12-19T04:15:14.045Z,-8.24
2022-12-19T04:20:22.331Z,-8.31
2022-12-19T04:25:31.213Z,-8.39
2022-12-19T04:30:40.162Z,-8.45
2022-12-19T04:35:46.062Z,-8.50
2022-12-19T04:40:51.859Z,-8.60
2022-12-19T04:45:57.984Z,-8.68
2022-12-19T04:51:04.101Z,-8.76
2022-12-19T04:56:11.269Z,-8.81
2022-12-19T05:01:18.608Z,-8.84
2022-12-19T05:06:24.717Z,-8.89
2022-12-19T05:11:30.652Z,-8.92
2022-12-19T05:16:36.369Z,-8.94
2022-12-19T05:21:42.495Z,-8.96
2022-12-19T05:26:49.599Z,-9.00
2022-12-19T05:31:55.921Z,-9.04
2022-12-19T05:37:03.642Z,-9.08
2022-12-19T05:42:12.515Z,-9.11
2022-12-19T05:47:21.260Z,-9.17
2022-12-19T05:52:26.984Z,-9.18
2022-12-19T05:57:33.229Z,-9.23
2022-12-19T06:02:39.091Z,-9.29
2022-12-19T06:07:46.563Z,-9.34
2022-12-19T06:12:53.045Z,-9.37
2022-12-19T06:17:59.508Z,-9.40
2022-12-19T06:23:05.564Z,-9.36
2022-12-19T06:28:11.799Z,-9.39
2022-12-19T06:33:17.782Z,-9.36
2022-12-19T06:38:23.715Z,-9.33
2022-12-19T06:43:29.878Z,-9.31
2022-12-19T06:48:36.566Z,-9.32
2022-12-19T06:53:42.730Z,-9.28
2022-12-19T06:58:49.245Z,-9.20
2022-12-19T07:03:55.756Z,-9.12
2022-12-19T07:09:01.758Z,-9.05
2022-12-19T07:14:07.751Z,-9.02
2022-12-19T07:19:17.089Z,-8.94
2022-12-19T07:24:23.025Z,-8.86
2022-12-19T07:29:29.023Z,-8.79
2022-12-19T07:34:34.989Z,-8.72
2022-12-19T07:39:41.041Z,-8.65
2022-12-19T07:44:46.782Z,-8.64
2022-12-19T07:49:53.162Z,-8.61
2022-12-19T07:54:59.714Z,-8.58
2022-12-19T08:00:07.018Z,-8.55
2022-12-19T08:05:19.046Z,-8.43
2022-12-19T08:10:24.974Z,-8.36
2022-12-19T08:15:31.183Z,-8.27
2022-12-19T08:20:37.116Z,-8.20
2022-12-19T08:25:42.939Z,-8.08
2022-12-19T08:30:49.230Z,-8.02
2022-12-19T08:35:55.151Z,-7.96
2022-12-19T08:45:56.506Z,-7.81
2022-12-19T08:51:03.771Z,-7.75
2022-12-19T08:56:13.489Z,-7.68
2022-12-19T09:01:20.927Z,-7.63
2022-12-19T09:06:27.203Z,-7.53
2022-12-19T09:11:33.535Z,-7.30
2022-12-19T09:16:42.077Z,-7.07
2022-12-19T09:21:48.050Z,-6.76
2022-12-19T09:26:53.700Z,-6.45
2022-12-19T09:31:59.380Z,-6.11
2022-12-19T09:37:05.465Z,-5.78
2022-12-19T09:42:31.082Z,-5.40
2022-12-19T09:47:42.586Z,-4.66
2022-12-19T09:52:57.723Z,-4.28
2022-12-19T09:58:11.476Z,-4.27
2022-12-19T10:03:22.166Z,-4.37
2022-12-19T10:08:32.070Z,-4.48
2022-12-19T10:14:00.742Z,-4.57
2022-12-19T10:19:09.196Z,-4.74
2022-12-19T10:24:35.945Z,-4.80
2022-12-19T10:29:53.967Z,-4.81
2022-12-19T10:35:00.603Z,-4.80
2022-12-19T10:40:27.349Z,-4.78
2022-12-19T10:45:39.460Z,-4.56
2022-12-19T10:50:47.273Z,-4.40
2022-12-19T10:55:55.155Z,-4.16
2022-12-19T11:01:13.524Z,-3.78
2022-12-19T11:06:47.526Z,-3.38
2022-12-19T11:15:50.428Z,-3.15
2022-12-19T11:24:43.959Z,-2.93
2022-12-19T11:30:47.111Z,-2.82
2022-12-19T11:30:49.027Z,-2.77
2022-12-19T11:34:07.461Z,-2.90
2022-12-19T11:39:21.422Z,-2.89
2022-12-19T11:44:44.043Z,-2.94
2022-12-19T11:50:00.172Z,-2.92
2022-12-19T11:55:15.782Z,-3.03
2022-12-19T12:00:24.530Z,-3.12
2022-12-19T12:05:46.416Z,-3.09
2022-12-19T12:16:13.453Z,-3.15
2022-12-19T12:26:30.555Z,-3.17
2022-12-19T12:31:13.774Z,-3.18
2022-12-19T12:31:54.269Z,-3.32
2022-12-19T12:35:34.426Z,-3.57
2022-12-19T12:39:16.007Z,-3.73
2022-12-19T12:44:33.367Z,-3.90
2022-12-19T12:49:44.226Z,-4.21
2022-12-19T12:54:53.700Z,-4.46
2022-12-19T13:00:20.875Z,-4.67
2022-12-19T13:05:46.233Z,-4.88
2022-12-19T13:10:58.059Z,-5.10
2022-12-19T13:16:41.434Z,-5.27
2022-12-19T13:22:15.781Z,-5.40
2022-12-19T13:27:48.014Z,-5.53
2022-12-19T13:33:17.069Z,-5.67
2022-12-19T13:39:48.575Z,-5.77
2022-12-19T13:43:58.554Z,-5.86
2022-12-19T13:49:07.007Z,-6.00
2022-12-19T13:54:28.481Z,-6.15
2022-12-19T13:59:40.347Z,-6.28
2022-12-19T14:04:51.514Z,-6.43
2022-12-19T14:11:27.639Z,-6.49
2022-12-19T14:15:28.600Z,-6.51
2022-12-19T14:22:04.658Z,-6.51
2022-12-19T14:28:21.102Z,-6.54
2022-12-19T14:31:27.678Z,-6.56
2022-12-19T14:36:35.975Z,-6.54
2022-12-19T14:42:04.149Z,-6.56
2022-12-19T14:54:07.404Z,-6.59
2022-12-19T14:54:28.465Z,-6.63
2022-12-19T14:58:55.503Z,-6.66
2022-12-19T15:04:48.951Z,-6.72
2022-12-19T15:11:00.517Z,-6.84
2022-12-19T15:14:59.012Z,-6.95
2022-12-19T15:20:09.190Z,-7.06
2022-12-19T15:25:44.007Z,-7.10
2022-12-19T15:30:48.193Z,-7.05
2022-12-19T15:35:55.222Z,-6.94
2022-12-19T15:41:01.204Z,-6.85
2022-12-19T15:46:07.422Z,-6.76
2022-12-19T15:51:14.940Z,-6.68
2022-12-19T15:56:28.780Z,-6.60
2022-12-19T16:01:34.637Z,-6.57
2022-12-19T16:06:40.448Z,-6.60
2022-12-19T16:11:46.387Z,-6.62
2022-12-19T16:16:54.812Z,-6.63
2022-12-19T16:22:01.615Z,-6.61
2022-12-19T16:27:11.460Z,-6.57
2022-12-19T16:32:18.253Z,-6.57
2022-12-19T16:37:31.813Z,-6.59
2022-12-19T16:42:39.401Z,-6.65
2022-12-19T16:47:45.196Z,-6.70
2022-12-19T16:52:51.323Z,-6.69
2022-12-19T16:57:58.931Z,-6.67
2022-12-19T17:03:09.437Z,-6.69
2022-12-19T17:08:15.603Z,-6.71
2022-12-19T17:13:24.018Z,-6.68
2022-12-19T17:18:33.265Z,-6.67
2022-12-19T17:23:38.926Z,-6.64
2022-12-19T17:28:48.126Z,-6.60
2022-12-19T17:33:58.178Z,-6.53
2022-12-19T17:39:11.472Z,-6.47
2022-12-19T17:44:17.706Z,-6.42
2022-12-19T17:49:27.506Z,-6.39
2022-12-19T17:54:33.381Z,-6.32
2022-12-19T17:59:39.034Z,-6.26
2022-12-19T18:04:44.755Z,-6.23
2022-12-19T18:09:50.474Z,-6.17
2022-12-19T18:14:56.190Z,-6.06
2022-12-19T18:20:03.215Z,-5.99
2022-12-19T18:25:18.340Z,-5.97
2022-12-19T18:30:25.838Z,-5.95
2022-12-19T18:35:35.870Z,-5.87
2022-12-19T18:40:42.843Z,-5.81
2022-12-19T18:45:51.656Z,-5.78
2022-12-19T18:51:00.640Z,-5.77
2022-12-19T18:56:07.548Z,-5.73
2022-12-19T19:01:16.395Z,-5.66
2022-12-19T19:06:25.863Z,-5.64
2022-12-19T19:11:31.656Z,-5.63
2022-12-19T19:16:38.394Z,-5.61
2022-12-19T19:21:44.649Z,-5.53
2022-12-19T19:26:50.460Z,-5.45
2022-12-19T19:31:56.263Z,-5.45
2022-12-19T19:37:14.729Z,-5.46
2022-12-19T19:42:20.459Z,-5.47
2022-12-19T19:47:32.345Z,-5.42
2022-12-19T19:52:41.415Z,-5.37
2022-12-19T19:57:53.275Z,-5.35
2022-12-19T20:03:06.273Z,-5.35
2022-12-19T20:08:29.000Z,-5.35
2022-12-19T20:13:45.107Z,-5.32
2022-12-19T20:18:52.820Z,-5.27
2022-12-19T20:23:58.903Z,-5.23
2022-12-19T20:29:06.880Z,-5.18
2022-12-19T20:34:12.580Z,-5.08
2022-12-19T20:39:22.326Z,-5.00
2022-12-19T20:44:28.397Z,-4.96
2022-12-19T20:49:34.510Z,-4.85
2022-12-19T20:54:40.460Z,-4.81
2022-12-19T20:59:46.258Z,-4.72
2022-12-19T21:04:52.834Z,-4.61
2022-12-19T21:09:58.500Z,-4.53
2022-12-19T21:15:04.848Z,-4.48
2022-12-19T21:20:11.995Z,-4.45
2022-12-19T21:25:17.887Z,-4.36
2022-12-19T21:30:23.621Z,-4.24
2022-12-19T21:35:29.647Z,-4.17
2022-12-19T21:40:37.074Z,-4.12
2022-12-19T21:45:42.783Z,-4.06
2022-12-19T21:50:56.616Z,-4.02
2022-12-19T21:56:08.479Z,-3.93
2022-12-19T22:01:15.695Z,-3.83
2022-12-19T22:06:28.407Z,-3.77
2022-12-19T22:11:35.766Z,-3.72
2022-12-19T22:16:42.699Z,-3.69
2022-12-19T22:21:49.122Z,-3.63
2022-12-19T22:26:54.718Z,-3.57
2022-12-19T22:32:00.584Z,-3.55
2022-12-19T22:37:06.317Z,-3.56
2022-12-19T22:42:11.968Z,-3.49
2022-12-19T22:47:17.807Z,-3.39
2022-12-19T22:52:24.768Z,-3.33
2022-12-19T22:57:30.572Z,-3.29
2022-12-19T23:02:38.367Z,-3.20
2022-12-19T23:07:45.414Z,-3.11
2022-12-19T23:12:51.375Z,-3.04
2022-12-19T23:17:57.177Z,-2.98
2022-12-19T23:23:03.096Z,-2.87
2022-12-19T23:28:09.508Z,-2.77
2022-12-19T23:33:15.233Z,-2.71
2022-12-19T23:38:21.019Z,-2.68
2022-12-19T23:43:26.781Z,-2.62
2022-12-19T23:48:32.754Z,-2.50
2022-12-19T23:53:38.483Z,-2.40
2022-12-19T23:58:45.723Z,-2.33
